createdAt,value
2023-02-06T00:04:33.017Z,-5.29
2023-02-06T00:09:35.410Z,-5.25
2023-02-06T00:14:37.647Z,-5.82
2023-02-06T00:19:39.920Z,-6.17
2023-02-06T00:24:42.264Z,-6.33
2023-02-06T00:29:44.588Z,-6.25
2023-02-06T00:34:46.784Z,-6.18
2023-02-06T00:39:49.011Z,-6.22
2023-02-06T00:44:51.307Z,-6.26
2023-02-06T00:49:53.711Z,-6.53
2023-02-06T00:54:56.229Z,-6.48
2023-02-06T00:59:58.623Z,-6.58
2023-02-06T01:05:02.381Z,-6.61
2023-02-06T01:10:05.190Z,-6.64
2023-02-06T01:15:11.411Z,-6.71
2023-02-06T01:20:14.836Z,-6.93
2023-02-06T01:25:17.291Z,-6.88
2023-02-06T01:30:19.437Z,-7.13
2023-02-06T01:35:21.818Z,-7.00
2023-02-06T01:40:24.233Z,-7.42
2023-02-06T01:45:26.349Z,-6.98
2023-02-06T01:50:31.268Z,-7.20
2023-02-06T01:55:36.271Z,-6.84
2023-02-06T02:00:39.157Z,-6.95
2023-02-06T02:05:43.749Z,-6.94
2023-02-06T02:10:46.605Z,-6.71
2023-02-06T02:16:13.100Z,-6.46
2023-02-06T02:21:22.430Z,-6.53
2023-02-06T02:26:27.649Z,-6.36
2023-02-06T02:32:03.153Z,-6.37
2023-02-06T02:37:20.702Z,-6.85
2023-02-06T02:43:00.330Z,-6.52
2023-02-06T02:48:16.241Z,-6.37
2023-02-06T02:53:19.377Z,-6.49
2023-02-06T02:58:30.766Z,-6.33
2023-02-06T03:03:38.142Z,-6.05
2023-02-06T03:09:00.107Z,-6.15
2023-02-06T03:14:15.802Z,-5.98
2023-02-06T03:19:31.698Z,-6.06
2023-02-06T03:24:39.481Z,-5.77
2023-02-06T03:29:43.740Z,-5.79
2023-02-06T03:34:58.301Z,-5.59
2023-02-06T03:40:01.678Z,-5.72
2023-02-06T03:45:10.117Z,-5.86
2023-02-06T03:50:14.323Z,-5.75
2023-02-06T03:55:22.973Z,-5.46
2023-02-06T04:00:26.439Z,-5.62
2023-02-06T04:05:28.827Z,-5.89
2023-02-06T04:10:31.121Z,-5.57
2023-02-06T04:15:33.746Z,-5.71
2023-02-06T04:20:41.127Z,-5.48
2023-02-06T04:25:43.311Z,-5.64
2023-02-06T04:30:45.563Z,-5.81
2023-02-06T04:35:49.049Z,-5.58
2023-02-06T04:40:51.223Z,-5.47
2023-02-06T04:45:53.380Z,-5.55
2023-02-06T04:50:55.728Z,-5.72
2023-02-06T04:56:12.550Z,-5.81
2023-02-06T05:01:17.199Z,-5.50
2023-02-06T05:06:19.710Z,-5.46
2023-02-06T05:11:22.552Z,-5.66
2023-02-06T05:16:24.878Z,-5.52
2023-02-06T05:21:27.108Z,-5.48
2023-02-06T05:26:29.396Z,-5.52
2023-02-06T05:31:31.777Z,-5.63
2023-02-06T05:36:34.185Z,-5.63
2023-02-06T05:41:36.308Z,-5.64
2023-02-06T05:46:38.630Z,-5.67
2023-02-06T05:51:41.175Z,-5.55
2023-02-06T05:56:43.634Z,-5.54
2023-02-06T06:01:45.862Z,-5.50
2023-02-06T06:06:48.085Z,-5.22
2023-02-06T06:11:51.876Z,-5.16
2023-02-06T06:16:54.230Z,-5.21
2023-02-06T06:21:58.266Z,-5.09
2023-02-06T06:27:00.560Z,-5.08
2023-02-06T06:32:03.828Z,-5.42
2023-02-06T06:37:06.034Z,-5.30
2023-02-06T06:42:08.429Z,-5.07
2023-02-06T06:47:11.131Z,-5.22
2023-02-06T06:52:23.925Z,-5.37
2023-02-06T06:57:26.666Z,-5.25
2023-02-06T07:02:28.874Z,-5.21
2023-02-06T07:07:31.104Z,-4.90
2023-02-06T07:12:33.977Z,-4.65
2023-02-06T07:17:36.549Z,-4.51
2023-02-06T07:22:39.066Z,-4.52
2023-02-06T07:27:41.158Z,-4.61
2023-02-06T07:32:43.354Z,-4.28
2023-02-06T07:37:45.821Z,-4.15
2023-02-06T07:42:48.137Z,-4.34
2023-02-06T07:47:56.772Z,-3.98
2023-02-06T07:52:59.390Z,-4.39
2023-02-06T07:58:01.756Z,-3.81
2023-02-06T08:03:05.321Z,-3.67
2023-02-06T08:08:08.105Z,-3.52
2023-02-06T08:13:10.561Z,-3.10
2023-02-06T08:18:12.750Z,-3.50
2023-02-06T08:23:14.907Z,-3.69
2023-02-06T08:28:17.308Z,-3.58
2023-02-06T08:33:19.621Z,-3.55
2023-02-06T08:54:18.293Z,-3.33
2023-02-06T08:59:20.994Z,-3.68
2023-02-06T09:04:23.183Z,-3.19
2023-02-06T09:09:25.336Z,-2.99
2023-02-06T09:14:29.747Z,-3.17
2023-02-06T09:19:32.091Z,-3.57
2023-02-06T09:24:34.249Z,-3.31
2023-02-06T09:30:27.249Z,-3.22
2023-02-06T09:35:30.656Z,-3.25
2023-02-06T09:40:34.584Z,-2.56
2023-02-06T09:45:37.045Z,-2.71
2023-02-06T09:50:44.957Z,-2.76
2023-02-06T09:55:58.844Z,-3.30
2023-02-06T10:01:11.653Z,-3.37
2023-02-06T10:06:22.022Z,-3.74
2023-02-06T10:12:01.082Z,-3.82
2023-02-06T10:17:13.589Z,-3.28
2023-02-06T10:22:42.144Z,-3.18
2023-02-06T10:27:51.079Z,-3.40
2023-02-06T10:33:25.643Z,-3.81
2023-02-06T10:39:00.873Z,-3.51
2023-02-06T10:44:30.536Z,-3.24
2023-02-06T10:49:50.823Z,-3.44
2023-02-06T10:54:58.412Z,-3.59
2023-02-06T11:00:02.521Z,-3.35
2023-02-06T11:05:14.799Z,-3.56
2023-02-06T11:10:23.579Z,-3.20
2023-02-06T11:15:39.536Z,-3.38
2023-02-06T11:20:44.834Z,-3.44
2023-02-06T11:26:05.258Z,-3.19
2023-02-06T11:31:10.256Z,-3.41
2023-02-06T11:36:30.818Z,-3.68
2023-02-06T11:41:34.046Z,-3.25
2023-02-06T11:46:39.618Z,-3.30
2023-02-06T11:52:26.287Z,-3.07
2023-02-06T11:57:35.514Z,-3.15
2023-02-06T12:02:38.794Z,-3.20
2023-02-06T12:07:46.738Z,-3.24
2023-02-06T12:12:55.598Z,-3.28
2023-02-06T12:18:04.799Z,-3.49
2023-02-06T12:23:32.597Z,-3.31
2023-02-06T12:28:43.166Z,-2.74
2023-02-06T12:34:00.862Z,-2.93
2023-02-06T12:39:12.224Z,-2.81
2023-02-06T12:45:02.760Z,-3.06
2023-02-06T12:50:11.100Z,-3.09
2023-02-06T12:55:44.910Z,-2.82
2023-02-06T13:01:02.191Z,-3.09
2023-02-06T13:06:26.358Z,-3.18
2023-02-06T13:11:29.116Z,-3.16
2023-02-06T13:16:52.259Z,-3.18
2023-02-06T13:22:15.938Z,-3.44
2023-02-06T13:27:39.797Z,-3.57
2023-02-06T13:32:48.931Z,-3.57
2023-02-06T13:38:10.375Z,-3.41
2023-02-06T13:43:26.838Z,-3.52
2023-02-06T13:48:38.338Z,-3.43
2023-02-06T13:53:40.908Z,-3.52
2023-02-06T13:58:51.794Z,-3.80
2023-02-06T14:03:54.829Z,-3.56
2023-02-06T14:09:41.624Z,-3.37
2023-02-06T14:14:58.585Z,-3.35
2023-02-06T14:20:41.407Z,-3.58
2023-02-06T14:25:49.857Z,-3.46
2023-02-06T14:31:03.519Z,-3.67
2023-02-06T14:36:08.958Z,-3.63
2023-02-06T14:41:11.522Z,-3.73
2023-02-06T14:46:17.160Z,-3.51
2023-02-06T14:51:22.692Z,-3.79
2023-02-06T14:56:28.758Z,-3.63
2023-02-06T15:01:32.668Z,-3.53
2023-02-06T15:06:38.789Z,-3.50
2023-02-06T15:11:40.941Z,-3.54
2023-02-06T15:16:51.073Z,-3.76
2023-02-06T15:22:16.279Z,-3.68
2023-02-06T15:27:26.902Z,-3.68
2023-02-06T15:32:33.245Z,-3.62
2023-02-06T15:37:36.843Z,-3.50
2023-02-06T15:42:39.394Z,-3.89
2023-02-06T15:47:44.646Z,-3.58
2023-02-06T15:52:47.987Z,-3.62
2023-02-06T15:57:50.918Z,-3.95
2023-02-06T16:02:58.201Z,-3.61
2023-02-06T16:08:03.055Z,-3.81
2023-02-06T16:13:14.775Z,-3.89
2023-02-06T16:18:32.879Z,-3.64
2023-02-06T16:23:46.366Z,-3.72
2023-02-06T16:29:10.586Z,-3.57
2023-02-06T16:34:39.762Z,-3.72
2023-02-06T16:39:43.781Z,-3.60
2023-02-06T16:44:49.879Z,-3.74
2023-02-06T16:49:54.817Z,-3.88
2023-02-06T16:55:02.790Z,-3.90
2023-02-06T17:00:16.306Z,-3.82
2023-02-06T17:05:20.096Z,-3.83
2023-02-06T17:10:25.797Z,-3.73
2023-02-06T17:15:29.383Z,-3.91
2023-02-06T17:20:35.950Z,-3.71
2023-02-06T17:25:39.997Z,-3.53
2023-02-06T17:30:47.222Z,-3.62
2023-02-06T17:35:49.643Z,-3.49
2023-02-06T17:40:51.867Z,-3.57
2023-02-06T17:45:55.382Z,-3.56
2023-02-06T17:50:57.557Z,-3.57
2023-02-06T17:56:14.706Z,-3.59
2023-02-06T18:01:22.504Z,-3.54
2023-02-06T18:06:25.178Z,-3.84
2023-02-06T18:11:28.375Z,-3.75
2023-02-06T18:16:31.884Z,-3.80
2023-02-06T18:21:35.491Z,-3.91
2023-02-06T18:26:37.760Z,-3.80
2023-02-06T18:31:40.082Z,-4.08
2023-02-06T18:36:42.280Z,-3.64
2023-02-06T18:42:02.770Z,-3.61
2023-02-06T18:47:06.219Z,-3.59
2023-02-06T18:52:08.985Z,-3.44
2023-02-06T18:57:11.427Z,-3.62
2023-02-06T19:02:13.636Z,-3.61
2023-02-06T19:07:16.929Z,-3.59
2023-02-06T19:12:27.843Z,-3.57
2023-02-06T19:17:31.715Z,-3.52
